Time;durP1;ratioP1;P1;durP2;ratioP2;P2;SDS_P1;SDS_P2;PMS_P1;PMS_P2;Temp;Humidity;BMP_temperature;BMP_pressure;BME280_temperature;BME280_humidity;BME280_pressure;Samples;Min_cycle;Max_cycle;Signal;HPM_P1;HPM_P2
2023/05/24 00:01:31;;;;;;;15.60;4.00;;;12.40;93.00;;;;;;4197263;28;20119;-57
2023/05/24 00:03:33;;;;;;;19.52;4.63;;;12.30;93.00;;;;;;4197316;28;20076;-56
2023/05/24 00:05:36;;;;;;;16.08;3.63;;;12.30;93.40;;;;;;4197488;28;20040;-56
2023/05/24 00:07:39;;;;;;;20.65;4.50;;;12.20;93.40;;;;;;4196661;28;20485;-56
2023/05/24 00:09:41;;;;;;;16.95;3.90;;;12.30;93.30;;;;;;4197483;28;20045;-56
2023/05/24 00:11:44;;;;;;;18.30;3.88;;;12.30;93.30;;;;;;4197279;28;20123;-56
2023/05/24 00:13:47;;;;;;;19.80;4.28;;;12.30;93.30;;;;;;4197345;28;20470;-58
2023/05/24 00:15:49;;;;;;;17.02;4.15;;;12.30;93.40;;;;;;4197589;28;20513;-57
2023/05/24 00:17:51;;;;;;;19.65;4.70;;;12.20;93.50;;;;;;4196212;28;20045;-57
2023/05/24 00:19:54;;;;;;;17.50;3.75;;;12.00;93.60;;;;;;4197550;28;20058;-57
2023/05/24 00:21:56;;;;;;;17.40;4.18;;;12.00;93.80;;;;;;4197140;28;20049;-56
2023/05/24 00:23:58;;;;;;;19.80;4.93;;;12.00;93.70;;;;;;4197201;28;20058;-58
2023/05/24 00:26:00;;;;;;;19.73;4.68;;;12.10;93.90;;;;;;4201561;28;20052;-58
2023/05/24 00:28:03;;;;;;;19.65;4.63;;;12.00;94.20;;;;;;4213232;28;20058;-56
2023/05/24 00:30:06;;;;;;;16.73;4.05;;;12.10;93.90;;;;;;4214333;28;20075;-57
2023/05/24 00:32:08;;;;;;;17.45;4.25;;;12.00;94.30;;;;;;4215588;28;20450;-57
2023/05/24 00:34:11;;;;;;;19.75;4.15;;;12.00;94.00;;;;;;4215693;28;20039;-60
2023/05/24 00:36:13;;;;;;;22.88;4.22;;;11.90;94.10;;;;;;4215327;28;20048;-57
2023/05/24 00:38:14;;;;;;;20.70;4.95;;;11.90;94.20;;;;;;4208980;28;20036;-57
2023/05/24 00:40:17;;;;;;;18.98;4.30;;;11.80;94.50;;;;;;4197015;28;20635;-57
2023/05/24 00:42:19;;;;;;;19.92;5.40;;;11.80;94.40;;;;;;4197435;28;20056;-57
2023/05/24 00:44:24;;;;;;;19.40;4.28;;;11.80;94.70;;;;;;4197445;28;20044;-56
2023/05/24 00:46:28;;;;;;;15.32;3.97;;;11.80;94.70;;;;;;4196813;28;20048;-57
2023/05/24 00:48:30;;;;;;;19.55;4.57;;;11.80;94.50;;;;;;4197007;28;20049;-56
2023/05/24 00:50:32;;;;;;;19.38;4.70;;;11.90;94.40;;;;;;4196763;28;20048;-57
2023/05/24 00:52:35;;;;;;;20.13;4.10;;;11.80;94.50;;;;;;4197110;28;20135;-56
2023/05/24 00:54:39;;;;;;;18.92;3.92;;;11.80;94.60;;;;;;4197047;28;20049;-58
2023/05/24 00:56:43;;;;;;;20.15;4.50;;;11.80;94.60;;;;;;4196216;28;20044;-56
2023/05/24 00:58:45;;;;;;;22.80;5.30;;;11.80;94.60;;;;;;4196923;28;20048;-56
2023/05/24 01:00:51;;;;;;;21.05;4.65;;;11.80;94.70;;;;;;4196789;28;20486;-56
2023/05/24 01:02:53;;;;;;;18.95;4.22;;;11.80;94.70;;;;;;4197149;28;20053;-57
2023/05/24 01:04:58;;;;;;;24.48;4.20;;;11.70;94.70;;;;;;4196940;28;20053;-57
2023/05/24 01:07:15;;;;;;;21.25;4.13;;;11.70;94.90;;;;;;4196022;28;20044;-56
2023/05/24 01:09:29;;;;;;;21.65;4.40;;;11.70;94.80;;;;;;4197031;28;20052;-56
2023/05/24 01:11:38;;;;;;;;;;;11.50;95.10;;;;;;4197338;28;20119;-56
2023/05/24 01:13:53;;;;;;;32.45;4.22;;;11.50;95.30;;;;;;4197040;28;19920;-58
2023/05/24 01:16:00;;;;;;;22.30;4.68;;;11.40;95.40;;;;;;4196907;28;20409;-57
2023/05/24 01:18:06;;;;;;;18.42;4.47;;;11.50;95.40;;;;;;4195815;28;20045;-58
2023/05/24 01:20:13;;;;;;;18.88;4.45;;;11.50;95.50;;;;;;4197006;28;20068;-58
2023/05/24 01:22:52;;;;;;;24.10;5.18;;;11.50;95.50;;;;;;4196849;28;20229;-56
2023/05/24 01:25:02;;;;;;;17.38;4.53;;;11.50;95.40;;;;;;4196670;28;20052;-56
2023/05/24 01:27:07;;;;;;;20.15;4.45;;;11.50;95.50;;;;;;4194607;28;20072;-57
2023/05/24 01:29:10;;;;;;;18.88;4.82;;;11.50;95.50;;;;;;4195125;28;20049;-56
2023/05/24 01:31:14;;;;;;;24.17;4.68;;;11.50;95.50;;;;;;4195663;28;20056;-54
2023/05/24 01:33:16;;;;;;;23.10;4.80;;;11.40;95.50;;;;;;4213134;28;20040;-55
2023/05/24 01:35:18;;;;;;;17.35;4.28;;;11.40;95.70;;;;;;4196639;28;20139;-56
2023/05/24 01:37:20;;;;;;;24.35;5.25;;;11.40;95.70;;;;;;4196024;28;20048;-57
2023/05/24 01:39:26;;;;;;;18.33;4.10;;;11.40;95.80;;;;;;4210819;28;20479;-56
2023/05/24 01:41:37;;;;;;;20.30;4.30;;;11.30;95.90;;;;;;4213213;28;20044;-57
2023/05/24 01:43:47;;;;;;;22.30;4.93;;;11.30;95.80;;;;;;4213224;28;20402;-56
2023/05/24 01:46:01;;;;;;;21.13;4.60;;;11.30;95.80;;;;;;4213605;28;20044;-56
2023/05/24 01:48:17;;;;;;;26.05;4.97;;;11.20;96.00;;;;;;4212767;28;20386;-56
2023/05/24 01:50:30;;;;;;;22.23;4.70;;;11.30;96.00;;;;;;4213707;28;20055;-56
2023/05/24 01:52:34;;;;;;;24.92;4.63;;;11.20;96.20;;;;;;4214077;28;20078;-56
2023/05/24 01:54:40;;;;;;;17.58;4.95;;;11.20;96.20;;;;;;4220070;28;20053;-56
2023/05/24 01:56:44;;;;;;;51.97;5.28;;;11.20;96.20;;;;;;4219961;28;20416;-57
2023/05/24 01:58:51;;;;;;;24.50;4.90;;;11.20;96.20;;;;;;4219791;28;20072;-56
2023/05/24 02:00:54;;;;;;;20.30;4.38;;;11.20;96.20;;;;;;4218217;28;20123;-55
2023/05/24 02:02:57;;;;;;;23.77;5.22;;;11.10;96.40;;;;;;4218242;28;20123;-56
2023/05/24 02:04:59;;;;;;;18.77;5.05;;;11.10;96.30;;;;;;4216810;28;20054;-56
2023/05/24 02:07:02;;;;;;;25.83;4.80;;;11.00;96.50;;;;;;4215424;28;20072;-56
2023/05/24 02:09:04;;;;;;;17.63;4.40;;;10.90;96.60;;;;;;4215996;28;20048;-54
2023/05/24 02:11:06;;;;;;;28.40;5.18;;;11.00;96.70;;;;;;4216241;28;20068;-57
2023/05/24 02:13:08;;;;;;;20.77;5.15;;;11.00;96.70;;;;;;4216277;28;20052;-56
2023/05/24 02:15:13;;;;;;;18.83;4.43;;;10.90;96.80;;;;;;4216488;28;20622;-55
2023/05/24 02:17:16;;;;;;;25.52;5.43;;;11.00;97.30;;;;;;4217810;28;20079;-59
2023/05/24 02:19:18;;;;;;;21.63;4.78;;;10.90;96.80;;;;;;4218033;28;20051;-55
2023/05/24 02:21:22;;;;;;;21.55;4.95;;;10.90;97.10;;;;;;4216371;28;20044;-54
2023/05/24 02:23:24;;;;;;;21.13;4.63;;;10.90;97.00;;;;;;4216250;28;20375;-58
2023/05/24 02:25:26;;;;;;;24.77;5.10;;;10.90;97.10;;;;;;4217661;28;20044;-57
2023/05/24 02:27:28;;;;;;;19.92;4.47;;;10.90;96.90;;;;;;4216983;28;20075;-57
2023/05/24 02:29:40;;;;;;;24.67;5.88;;;10.90;97.20;;;;;;4218114;28;20455;-58
2023/05/24 02:31:50;;;;;;;24.35;6.28;;;11.00;96.90;;;;;;4217042;28;20551;-57
2023/05/24 02:33:53;;;;;;;23.50;5.00;;;11.00;96.90;;;;;;4216163;28;20036;-56
2023/05/24 02:36:09;;;;;;;22.23;4.65;;;11.00;96.90;;;;;;4212354;28;20051;-57
2023/05/24 02:38:16;;;;;;;25.27;4.75;;;10.90;96.90;;;;;;4196973;28;20040;-57
2023/05/24 02:40:19;;;;;;;26.20;5.57;;;10.90;97.20;;;;;;4199217;28;20044;-56
2023/05/24 02:42:21;;;;;;;19.30;5.00;;;10.80;97.10;;;;;;4198217;28;20189;-57
2023/05/24 02:44:23;;;;;;;22.30;4.80;;;10.70;97.40;;;;;;4199402;28;20132;-56
2023/05/24 02:46:25;;;;;;;20.00;5.38;;;10.70;97.40;;;;;;4199508;28;20072;-55
2023/05/24 02:48:28;;;;;;;17.95;4.68;;;10.80;97.70;;;;;;4198272;28;20045;-57
2023/05/24 02:50:30;;;;;;;25.13;5.80;;;10.80;97.40;;;;;;4199578;28;20048;-59
2023/05/24 02:52:33;;;;;;;20.15;5.00;;;10.70;97.50;;;;;;4197941;28;20048;-57
2023/05/24 02:54:35;;;;;;;20.77;4.95;;;10.70;97.60;;;;;;4198915;28;20056;-59
2023/05/24 02:56:39;;;;;;;21.52;5.50;;;10.60;97.50;;;;;;4198810;28;20094;-57
2023/05/24 02:58:41;;;;;;;27.75;5.15;;;10.60;97.60;;;;;;4197645;28;20114;-57
2023/05/24 03:00:43;;;;;;;23.70;5.05;;;10.60;97.70;;;;;;4198983;28;20406;-57
2023/05/24 03:02:46;;;;;;;20.38;4.80;;;10.50;98.00;;;;;;4198522;28;20120;-57
2023/05/24 03:04:50;;;;;;;19.55;5.40;;;10.50;97.80;;;;;;4198039;28;20143;-55
2023/05/24 03:06:52;;;;;;;22.48;5.28;;;10.60;97.90;;;;;;4198230;28;20434;-57
2023/05/24 03:08:54;;;;;;;23.33;5.35;;;10.50;97.90;;;;;;4197974;28;20075;-58
2023/05/24 03:10:57;;;;;;;22.67;5.55;;;10.50;97.80;;;;;;4197985;28;20046;-57
2023/05/24 03:12:59;;;;;;;16.65;4.50;;;10.50;97.90;;;;;;4198584;28;20215;-58
2023/05/24 03:15:01;;;;;;;22.83;5.10;;;10.50;98.00;;;;;;4198423;28;20124;-56
2023/05/24 03:17:03;;;;;;;18.30;4.63;;;10.50;98.10;;;;;;4197411;28;20072;-57
2023/05/24 03:19:08;;;;;;;21.42;4.82;;;10.50;98.10;;;;;;4198005;28;20075;-56
2023/05/24 03:21:12;;;;;;;21.13;5.32;;;10.40;98.20;;;;;;4198468;28;20479;-62
2023/05/24 03:23:15;;;;;;;24.38;5.88;;;10.50;98.10;;;;;;4198349;28;20123;-56
2023/05/24 03:25:17;;;;;;;25.75;5.35;;;10.50;98.10;;;;;;4197887;28;20052;-57
2023/05/24 03:27:19;;;;;;;16.77;4.47;;;10.50;98.10;;;;;;4212023;28;20053;-57
2023/05/24 03:29:22;;;;;;;19.23;5.47;;;10.50;98.10;;;;;;4214833;28;20489;-57
2023/05/24 03:31:25;;;;;;;26.27;5.13;;;10.50;98.10;;;;;;4214731;28;20398;-56
2023/05/24 03:33:27;;;;;;;25.75;5.82;;;10.40;98.20;;;;;;4214693;28;20385;-56
2023/05/24 03:35:30;;;;;;;19.30;4.80;;;10.40;98.20;;;;;;4213869;28;20071;-58
2023/05/24 03:37:33;;;;;;;15.27;4.72;;;10.50;98.10;;;;;;4213757;28;20048;-57
2023/05/24 03:39:37;;;;;;;22.30;5.47;;;10.40;98.20;;;;;;4196608;28;20040;-57
2023/05/24 03:41:39;;;;;;;26.65;5.63;;;10.50;98.20;;;;;;4214650;28;20056;-56
2023/05/24 03:43:42;;;;;;;19.48;5.25;;;10.50;98.20;;;;;;4214718;28;20048;-57
2023/05/24 03:45:44;;;;;;;23.00;5.25;;;10.50;98.10;;;;;;4214438;28;20078;-57
2023/05/24 03:47:46;;;;;;;23.08;5.68;;;10.40;98.20;;;;;;4195778;28;20047;-56
2023/05/24 03:49:48;;;;;;;23.80;5.70;;;10.40;98.30;;;;;;4214653;28;20046;-57
2023/05/24 03:51:50;;;;;;;17.98;4.93;;;10.40;98.20;;;;;;4214365;28;20052;-58
2023/05/24 03:53:55;;;;;;;21.75;5.82;;;10.50;98.30;;;;;;4214165;28;20044;-56
2023/05/24 03:55:57;;;;;;;12.70;4.18;;;10.40;98.20;;;;;;4196700;28;20049;-58
2023/05/24 03:57:59;;;;;;;25.77;5.72;;;10.40;98.40;;;;;;4213823;28;20482;-58
2023/05/24 04:00:05;;;;;;;22.95;4.90;;;10.50;98.40;;;;;;4215171;28;20076;-60
2023/05/24 04:02:08;;;;;;;20.70;5.43;;;10.50;98.50;;;;;;4216939;28;20055;-57
2023/05/24 04:04:10;;;;;;;20.35;5.07;;;10.40;98.30;;;;;;4214313;28;20055;-57
2023/05/24 04:06:13;;;;;;;23.85;5.22;;;10.40;98.30;;;;;;4214410;28;20076;-57
2023/05/24 04:08:18;;;;;;;20.98;5.30;;;10.60;98.20;;;;;;4195800;28;20583;-57
2023/05/24 04:10:23;;;;;;;23.50;5.30;;;10.60;98.00;;;;;;4214385;28;20051;-57
2023/05/24 04:12:29;;;;;;;23.95;5.38;;;10.60;98.00;;;;;;4214331;28;20101;-57
2023/05/24 04:14:31;;;;;;;19.25;5.07;;;10.50;97.90;;;;;;4196414;28;20061;-57
2023/05/24 04:16:33;;;;;;;25.55;6.93;;;10.50;98.00;;;;;;4213561;28;20047;-57
2023/05/24 04:18:35;;;;;;;19.42;5.55;;;10.50;98.00;;;;;;4215878;28;20045;-58
2023/05/24 04:20:38;;;;;;;25.15;6.47;;;10.40;98.20;;;;;;4216987;28;20075;-57
2023/05/24 04:22:40;;;;;;;22.63;5.50;;;10.50;98.20;;;;;;4216057;28;20494;-57
2023/05/24 04:24:42;;;;;;;27.92;5.82;;;10.50;98.00;;;;;;4214850;28;20075;-58
2023/05/24 04:26:46;;;;;;;22.10;5.07;;;10.50;98.10;;;;;;4214386;28;20101;-57
2023/05/24 04:28:48;;;;;;;17.33;4.70;;;10.50;98.10;;;;;;4213215;28;20413;-58
2023/05/24 04:30:51;;;;;;;28.92;6.05;;;10.50;98.50;;;;;;4214821;28;20048;-58
2023/05/24 04:32:53;;;;;;;29.35;6.70;;;10.60;98.10;;;;;;4214092;28;20043;-57
2023/05/24 04:34:55;;;;;;;18.23;5.72;;;10.60;97.90;;;;;;4214959;28;20062;-56
2023/05/24 04:36:57;;;;;;;16.83;5.15;;;10.70;98.00;;;;;;4214983;28;20400;-59
2023/05/24 04:39:01;;;;;;;23.63;5.22;;;10.60;97.80;;;;;;4203967;28;20124;-59
2023/05/24 04:41:07;;;;;;;20.90;5.25;;;10.60;97.90;;;;;;4199540;28;20053;-54
2023/05/24 04:43:11;;;;;;;25.52;5.50;;;10.70;97.80;;;;;;4197199;28;20390;-54
2023/05/24 04:45:13;;;;;;;30.77;5.45;;;10.70;97.60;;;;;;4197753;28;20170;-53
2023/05/24 04:47:16;;;;;;;24.42;6.30;;;10.80;97.60;;;;;;4197343;28;20414;-56
2023/05/24 04:49:18;;;;;;;28.02;5.93;;;10.60;97.70;;;;;;4197203;28;20459;-57
2023/05/24 04:51:22;;;;;;;16.83;5.45;;;10.70;97.60;;;;;;4197470;28;20048;-67
2023/05/24 04:53:24;;;;;;;22.20;5.20;;;10.80;97.70;;;;;;4200857;28;20055;-56
2023/05/24 04:55:26;;;;;;;21.60;5.95;;;10.90;97.70;;;;;;4200856;28;20079;-66
2023/05/24 04:57:29;;;;;;;21.40;5.55;;;10.90;97.50;;;;;;4200282;28;20049;-56
2023/05/24 04:59:32;;;;;;;22.08;5.40;;;10.80;97.50;;;;;;4198656;28;20076;-57
2023/05/24 05:01:35;;;;;;;26.17;5.83;;;10.80;97.50;;;;;;4197995;28;20123;-57
2023/05/24 05:03:38;;;;;;;29.27;6.13;;;10.80;97.50;;;;;;4197443;28;20147;-58
2023/05/24 05:05:40;;;;;;;25.60;5.60;;;10.90;97.50;;;;;;4196017;28;20052;-59
2023/05/24 05:07:42;;;;;;;27.88;6.13;;;11.00;97.40;;;;;;4195934;28;20326;-57
2023/05/24 05:09:46;;;;;;;24.30;5.38;;;11.00;97.00;;;;;;4196781;28;20076;-57
2023/05/24 05:11:48;;;;;;;17.58;5.15;;;10.90;97.30;;;;;;4196922;28;20048;-56
2023/05/24 05:13:50;;;;;;;24.75;4.95;;;10.90;97.50;;;;;;4197127;28;20250;-57
2023/05/24 05:15:53;;;;;;;23.75;5.47;;;11.00;97.20;;;;;;4195962;28;20048;-58
2023/05/24 05:17:56;;;;;;;17.92;5.45;;;10.90;97.10;;;;;;4195762;28;20171;-57
2023/05/24 05:19:58;;;;;;;20.05;5.22;;;11.00;97.20;;;;;;4196938;28;20435;-57
2023/05/24 05:22:00;;;;;;;21.42;5.43;;;11.10;97.20;;;;;;4196868;28;20123;-63
2023/05/24 05:24:02;;;;;;;23.63;4.95;;;11.10;96.90;;;;;;4197230;28;20049;-56
2023/05/24 05:26:06;;;;;;;24.50;5.63;;;11.10;97.30;;;;;;4201301;28;20040;-57
2023/05/24 05:28:08;;;;;;;22.60;5.57;;;11.20;96.80;;;;;;4215701;28;20482;-57
2023/05/24 05:30:11;;;;;;;23.55;5.50;;;11.20;96.80;;;;;;4216828;28;20056;-59
2023/05/24 05:32:15;;;;;;;22.33;5.53;;;11.30;96.70;;;;;;4216762;28;20048;-56
2023/05/24 05:34:18;;;;;;;24.88;5.05;;;11.30;96.70;;;;;;4216758;28;20044;-56
2023/05/24 05:36:20;;;;;;;19.42;5.63;;;11.30;96.80;;;;;;4198539;28;20049;-57
2023/05/24 05:38:22;;;;;;;22.58;5.50;;;11.30;96.70;;;;;;4209805;28;20036;-60
2023/05/24 05:40:24;;;;;;;25.65;5.38;;;11.30;96.80;;;;;;4200208;28;20386;-57
2023/05/24 05:42:27;;;;;;;21.60;6.30;;;11.40;96.60;;;;;;4199841;28;20049;-56
2023/05/24 05:44:32;;;;;;;18.83;5.43;;;11.50;96.40;;;;;;4200857;28;20351;-56
2023/05/24 05:46:34;;;;;;;22.58;6.03;;;11.40;96.40;;;;;;4200983;28;20048;-57
2023/05/24 05:48:37;;;;;;;23.65;6.28;;;11.40;96.50;;;;;;4199124;28;20052;-58
2023/05/24 05:50:41;;;;;;;18.83;4.45;;;11.60;96.40;;;;;;4199603;28;20048;-57
2023/05/24 05:52:43;;;;;;;25.45;6.90;;;11.70;96.20;;;;;;4199720;28;20069;-56
2023/05/24 05:54:46;;;;;;;15.38;3.95;;;11.70;96.00;;;;;;4199609;28;20051;-57
2023/05/24 05:56:48;;;;;;;19.17;5.32;;;11.70;96.00;;;;;;4199686;28;20051;-57
2023/05/24 05:58:50;;;;;;;20.95;5.35;;;11.80;95.90;;;;;;4197356;28;20538;-57
2023/05/24 06:00:53;;;;;;;21.52;5.20;;;11.80;95.80;;;;;;4199730;28;20522;-58
2023/05/24 06:02:55;;;;;;;18.33;4.78;;;11.80;95.70;;;;;;4199758;28;20071;-57
2023/05/24 06:04:59;;;;;;;23.00;5.30;;;11.70;95.70;;;;;;4199351;28;20056;-57
2023/05/24 06:07:01;;;;;;;26.63;6.03;;;11.80;95.70;;;;;;4199337;28;20049;-57
2023/05/24 06:09:04;;;;;;;29.15;6.15;;;11.70;95.40;;;;;;4199175;28;20052;-56
2023/05/24 06:11:06;;;;;;;29.80;5.97;;;11.70;95.40;;;;;;4201407;28;20077;-56
2023/05/24 06:13:10;;;;;;;27.58;5.75;;;11.80;95.70;;;;;;4201640;28;20052;-55
2023/05/24 06:15:13;;;;;;;26.10;5.75;;;11.80;95.80;;;;;;4201641;28;20040;-64
2023/05/24 06:17:15;;;;;;;33.00;6.28;;;11.90;95.40;;;;;;4200477;28;20049;-57
2023/05/24 06:19:17;;;;;;;25.73;6.00;;;12.00;95.50;;;;;;4198709;28;20044;-57
2023/05/24 06:21:21;;;;;;;24.38;5.03;;;11.90;95.30;;;;;;4199302;28;20044;-57
2023/05/24 06:23:23;;;;;;;31.15;5.90;;;11.90;95.40;;;;;;4199506;28;20398;-55
2023/05/24 06:25:28;;;;;;;21.95;5.22;;;12.00;95.40;;;;;;4199129;28;20063;-58
2023/05/24 06:27:30;;;;;;;19.02;5.25;;;12.10;94.90;;;;;;4215851;28;20040;-56
2023/05/24 06:29:32;;;;;;;30.00;6.13;;;11.90;95.20;;;;;;4197071;28;20072;-54
2023/05/24 06:31:34;;;;;;;23.20;5.22;;;11.70;95.40;;;;;;4216026;28;20452;-56
2023/05/24 06:33:37;;;;;;;30.50;6.47;;;11.60;95.50;;;;;;4215638;28;20509;-57
2023/05/24 06:35:40;;;;;;;31.23;6.55;;;11.80;95.40;;;;;;4198159;28;20538;-56
2023/05/24 06:37:43;;;;;;;25.83;4.85;;;11.80;95.20;;;;;;4214536;28;20169;-58
2023/05/24 06:39:46;;;;;;;26.92;5.93;;;12.00;95.20;;;;;;4198256;28;20045;-57
2023/05/24 06:41:50;;;;;;;34.03;6.25;;;11.90;95.10;;;;;;4199185;28;20089;-55
2023/05/24 06:43:52;;;;;;;33.03;7.13;;;11.90;95.10;;;;;;4198671;28;20124;-57
2023/05/24 06:45:55;;;;;;;24.92;5.20;;;11.90;95.20;;;;;;4197815;28;20870;-56
2023/05/24 06:47:57;;;;;;;20.13;5.50;;;12.00;95.00;;;;;;4197826;28;20048;-56
2023/05/24 06:49:59;;;;;;;28.98;6.20;;;12.10;95.00;;;;;;4198749;28;20101;-52
2023/05/24 06:52:01;;;;;;;22.27;5.05;;;12.10;95.10;;;;;;4198876;28;20052;-52
2023/05/24 06:54:05;;;;;;;21.98;5.72;;;12.10;95.00;;;;;;4198872;28;20041;-52
2023/05/24 06:56:08;;;;;;;28.55;5.80;;;12.20;94.80;;;;;;4198681;28;20055;-56
2023/05/24 06:58:13;;;;;;;27.95;6.32;;;12.20;94.70;;;;;;4197653;28;20052;-63
2023/05/24 07:00:16;;;;;;;23.30;5.50;;;12.30;94.70;;;;;;4198499;28;20414;-55
2023/05/24 07:02:25;;;;;;;23.02;5.45;;;12.40;94.80;;;;;;4197304;28;20071;-56
2023/05/24 07:04:27;;;;;;;19.67;5.75;;;12.50;94.50;;;;;;4198813;28;20055;-53
2023/05/24 07:06:32;;;;;;;31.30;6.60;;;12.80;94.40;;;;;;4198696;28;20490;-53
2023/05/24 07:08:34;;;;;;;29.30;5.40;;;13.00;94.20;;;;;;4197912;28;20449;-53
2023/05/24 07:10:37;;;;;;;28.08;5.38;;;13.10;93.70;;;;;;4198716;28;20139;-53
2023/05/24 07:12:40;;;;;;;30.88;5.95;;;13.10;93.80;;;;;;4198620;28;20045;-53
2023/05/24 07:14:42;;;;;;;27.63;5.93;;;13.20;93.60;;;;;;4197286;28;20132;-56
2023/05/24 07:16:45;;;;;;;26.05;5.65;;;13.30;93.70;;;;;;4197996;28;20082;-57
2023/05/24 07:18:47;;;;;;;22.30;5.72;;;13.50;93.70;;;;;;4197315;28;20044;-55
2023/05/24 07:20:49;;;;;;;25.20;5.95;;;13.70;93.30;;;;;;4198547;28;20490;-55
2023/05/24 07:22:52;;;;;;;23.05;5.82;;;13.70;92.80;;;;;;4198484;28;20423;-54
2023/05/24 07:24:54;;;;;;;24.58;5.15;;;13.70;92.80;;;;;;4198551;28;20137;-57
2023/05/24 07:26:58;;;;;;;30.70;5.53;;;13.90;92.80;;;;;;4214274;28;20433;-64
2023/05/24 07:29:00;;;;;;;21.83;5.18;;;14.00;92.50;;;;;;4216395;28;20055;-56
2023/05/24 07:31:03;;;;;;;25.67;5.40;;;14.00;92.50;;;;;;4217446;28;20070;-53
2023/05/24 07:33:05;;;;;;;25.58;5.88;;;14.10;92.40;;;;;;4216319;28;20048;-55
2023/05/24 07:35:11;;;;;;;21.90;5.80;;;14.10;92.30;;;;;;4216909;28;20201;-61
2023/05/24 07:37:14;;;;;;;26.20;5.25;;;14.10;92.00;;;;;;4217785;28;20117;-57
2023/05/24 07:39:17;;;;;;;22.20;4.60;;;14.00;92.00;;;;;;4216305;28;20396;-59
2023/05/24 07:41:19;;;;;;;23.13;5.05;;;14.10;92.30;;;;;;4216251;28;20056;-56
2023/05/24 07:43:22;;;;;;;33.25;5.80;;;14.20;92.20;;;;;;4215561;28;20078;-56
2023/05/24 07:45:25;;;;;;;27.30;5.60;;;14.30;91.70;;;;;;4215389;28;20048;-58
2023/05/24 07:47:27;;;;;;;30.67;5.00;;;14.40;91.70;;;;;;4215373;28;20071;-57
2023/05/24 07:49:30;;;;;;;32.17;5.55;;;14.50;91.80;;;;;;4214048;28;20072;-69
2023/05/24 07:51:32;;;;;;;23.80;5.20;;;14.40;91.50;;;;;;4218426;28;20056;-57
2023/05/24 07:53:36;;;;;;;43.42;5.63;;;14.40;91.20;;;;;;4218221;28;20047;-61
2023/05/24 07:55:39;;;;;;;34.58;5.32;;;14.40;91.30;;;;;;4217375;28;20084;-56
2023/05/24 07:57:41;;;;;;;22.70;4.60;;;14.60;91.10;;;;;;4197643;28;20494;-63
2023/05/24 07:59:45;;;;;;;28.55;5.97;;;14.50;90.90;;;;;;4214822;28;20074;-62
2023/05/24 08:01:47;;;;;;;26.48;5.35;;;14.70;91.10;;;;;;4216489;28;20040;-57
2023/05/24 08:03:49;;;;;;;17.20;4.38;;;14.70;90.90;;;;;;4215444;28;20116;-56
2023/05/24 08:05:52;;;;;;;20.42;4.18;;;14.60;90.80;;;;;;4214541;28;20852;-56
2023/05/24 08:07:54;;;;;;;19.75;5.03;;;14.70;90.90;;;;;;4214844;28;20075;-56
2023/05/24 08:09:56;;;;;;;22.33;5.25;;;14.60;90.70;;;;;;4212185;28;20086;-54
2023/05/24 08:11:58;;;;;;;19.17;4.25;;;14.80;90.50;;;;;;4197410;28;20044;-53
2023/05/24 08:14:00;;;;;;;19.70;4.95;;;14.80;89.90;;;;;;4197435;28;20045;-54
2023/05/24 08:16:04;;;;;;;18.42;4.47;;;14.70;89.90;;;;;;4197210;28;20040;-54
2023/05/24 08:18:06;;;;;;;18.88;4.22;;;14.70;88.60;;;;;;4207591;28;20494;-55
2023/05/24 08:20:13;;;;;;;22.25;4.15;;;15.00;88.10;;;;;;4210638;28;20539;-55
2023/05/24 08:22:15;;;;;;;16.35;3.92;;;14.80;86.60;;;;;;4210301;28;20043;-56
2023/05/24 08:24:18;;;;;;;20.15;4.45;;;14.60;86.70;;;;;;4212949;28;20048;-60
2023/05/24 08:26:21;;;;;;;15.13;4.18;;;14.60;88.00;;;;;;4212887;28;20036;-55
2023/05/24 08:28:23;;;;;;;18.90;3.58;;;14.90;87.90;;;;;;4211960;28;20044;-52
2023/05/24 08:30:25;;;;;;;19.88;3.85;;;15.00;86.20;;;;;;4210536;28;20052;-52
2023/05/24 08:32:29;;;;;;;17.13;3.85;;;14.80;85.40;;;;;;4214324;28;20052;-53
2023/05/24 08:34:31;;;;;;;16.83;4.22;;;14.70;83.70;;;;;;4213846;28;20124;-53
2023/05/24 08:36:34;;;;;;;15.23;3.53;;;14.70;84.70;;;;;;4213832;28;20075;-54
2023/05/24 08:38:36;;;;;;;16.27;3.42;;;14.70;84.60;;;;;;4209116;28;20058;-53
2023/05/24 08:40:38;;;;;;;16.52;4.22;;;14.60;85.40;;;;;;4209109;28;20086;-53
2023/05/24 08:42:41;;;;;;;21.60;3.92;;;14.80;86.30;;;;;;4209400;28;20072;-57
2023/05/24 08:44:48;;;;;;;23.42;4.38;;;14.90;86.20;;;;;;4203656;28;20467;-53
2023/05/24 08:46:52;;;;;;;14.75;4.22;;;15.10;87.10;;;;;;4196222;28;20050;-55
2023/05/24 08:48:57;;;;;;;16.50;3.27;;;15.30;84.20;;;;;;4196815;28;20127;-53
2023/05/24 08:51:02;;;;;;;21.15;3.78;;;15.20;82.90;;;;;;4196474;28;21258;-53
2023/05/24 08:53:05;;;;;;;18.42;3.60;;;15.30;83.10;;;;;;4196224;28;20490;-54
2023/05/24 08:55:09;;;;;;;14.68;3.58;;;15.30;81.80;;;;;;4196177;28;20060;-56
2023/05/24 08:57:13;;;;;;;16.17;3.90;;;15.30;82.50;;;;;;4211196;28;20429;-57
2023/05/24 08:59:16;;;;;;;28.55;4.07;;;15.30;81.40;;;;;;4211531;28;20044;-56
2023/05/24 09:01:19;;;;;;;22.65;4.05;;;15.30;80.00;;;;;;4211999;28;20551;-58
2023/05/24 09:03:22;;;;;;;19.23;4.07;;;15.40;80.90;;;;;;4212352;28;20048;-59
2023/05/24 09:05:27;;;;;;;16.17;3.70;;;15.50;80.50;;;;;;4212524;28;20082;-59
2023/05/24 09:07:30;;;;;;;13.38;3.40;;;15.50;80.50;;;;;;4212147;28;20079;-56
2023/05/24 09:09:36;;;;;;;13.35;3.33;;;15.60;79.90;;;;;;4212118;28;20044;-58
2023/05/24 09:11:39;;;;;;;13.07;2.78;;;15.50;80.00;;;;;;4213064;28;20180;-60
2023/05/24 09:13:43;;;;;;;20.83;3.83;;;15.60;80.30;;;;;;4213482;28;20080;-59
2023/05/24 09:15:45;;;;;;;21.42;3.38;;;15.70;80.20;;;;;;4213078;28;20074;-62
2023/05/24 09:17:48;;;;;;;22.75;3.65;;;15.70;79.80;;;;;;4194814;28;20495;-58
2023/05/24 09:19:52;;;;;;;13.82;3.08;;;15.80;79.70;;;;;;4204550;28;20138;-61
2023/05/24 09:21:56;;;;;;;10.23;3.17;;;16.00;79.80;;;;;;4212111;28;20067;-58
2023/05/24 09:23:58;;;;;;;13.40;3.67;;;16.00;77.90;;;;;;4211293;28;20131;-53
2023/05/24 09:26:06;;;;;;;37.67;4.30;;;15.90;78.30;;;;;;4210576;28;20045;-53
2023/05/24 09:28:11;;;;;;;21.58;3.75;;;16.10;79.20;;;;;;4210391;28;20040;-53
2023/05/24 09:30:14;;;;;;;13.75;2.75;;;16.30;77.30;;;;;;4192932;28;20079;-54
2023/05/24 09:32:17;;;;;;;10.68;3.10;;;16.30;74.60;;;;;;4201927;28;20050;-54
2023/05/24 09:34:20;;;;;;;15.82;3.50;;;16.10;74.70;;;;;;4195587;28;20036;-54
2023/05/24 09:36:22;;;;;;;16.70;3.47;;;16.30;76.50;;;;;;4207782;28;20421;-54
2023/05/24 09:38:26;;;;;;;14.15;2.67;;;16.40;73.40;;;;;;4212594;28;20421;-53
2023/05/24 09:40:29;;;;;;;12.90;2.88;;;16.30;70.80;;;;;;4211827;28;20051;-52
2023/05/24 09:42:32;;;;;;;7.97;2.63;;;16.30;72.00;;;;;;4208378;28;20513;-53
2023/05/24 09:44:35;;;;;;;14.60;3.10;;;16.40;72.60;;;;;;4206822;28;20048;-63
2023/05/24 09:46:39;;;;;;;14.45;2.97;;;16.50;73.20;;;;;;4208973;28;20048;-59
2023/05/24 09:48:54;;;;;;;15.80;3.00;;;16.50;73.50;;;;;;4206682;28;20059;-52
2023/05/24 09:51:01;;;;;;;16.60;3.25;;;16.60;72.80;;;;;;4210575;28;20054;-57
2023/05/24 09:53:03;;;;;;;12.45;3.03;;;16.80;74.00;;;;;;4211054;28;20131;-56
2023/05/24 09:55:14;;;;;;;10.93;2.78;;;16.80;73.00;;;;;;4212520;28;20040;-53
2023/05/24 09:57:16;;;;;;;15.75;2.85;;;16.80;72.30;;;;;;4203515;28;20041;-53
2023/05/24 09:59:19;;;;;;;9.63;2.83;;;16.90;72.20;;;;;;4194924;28;20052;-54
2023/05/24 10:01:23;;;;;;;14.05;2.58;;;16.90;73.80;;;;;;4197267;28;20048;-52
2023/05/24 10:03:26;;;;;;;16.60;2.55;;;17.10;72.20;;;;;;4207367;28;20040;-54
2023/05/24 10:05:29;;;;;;;13.32;2.42;;;17.00;72.60;;;;;;4195852;28;20048;-55
2023/05/24 10:07:33;;;;;;;14.25;2.35;;;17.00;71.40;;;;;;4204283;28;20075;-53
2023/05/24 10:09:35;;;;;;;11.00;2.30;;;17.10;71.20;;;;;;4202342;28;20513;-57
2023/05/24 10:11:40;;;;;;;11.63;2.20;;;17.10;71.20;;;;;;4210753;28;20110;-52
2023/05/24 10:13:43;;;;;;;9.45;2.58;;;17.10;69.80;;;;;;4202131;28;20048;-55
2023/05/24 10:15:45;;;;;;;9.07;2.25;;;17.10;70.60;;;;;;4215582;28;20044;-53
2023/05/24 10:17:47;;;;;;;10.88;2.67;;;17.20;70.60;;;;;;4208200;28;20098;-56
2023/05/24 10:19:51;;;;;;;10.68;2.30;;;17.30;71.50;;;;;;4209646;28;20078;-53
2023/05/24 10:21:56;;;;;;;11.05;2.75;;;17.50;71.30;;;;;;4213887;28;20490;-53
2023/05/24 10:24:00;;;;;;;12.18;2.80;;;17.60;71.20;;;;;;4204181;28;20470;-52
2023/05/24 10:26:07;;;;;;;10.90;2.78;;;17.70;70.60;;;;;;4215131;28;20040;-55
2023/05/24 10:28:12;;;;;;;12.90;2.63;;;17.80;70.40;;;;;;4213996;28;20128;-54
2023/05/24 10:30:22;;;;;;;9.48;2.83;;;17.70;70.10;;;;;;4201906;28;20044;-52
2023/05/24 10:32:30;;;;;;;11.80;2.28;;;17.90;70.60;;;;;;4199654;28;20451;-54
2023/05/24 10:34:33;;;;;;;6.93;2.47;;;17.90;70.00;;;;;;4209459;28;20055;-53
2023/05/24 10:36:36;;;;;;;7.63;2.15;;;17.90;70.50;;;;;;4215459;28;20135;-54